Time;durP1;ratioP1;P1;durP2;ratioP2;P2;SDS_P1;SDS_P2;PMS_P1;PMS_P2;Temp;Humidity;BMP_temperature;BMP_pressure;BME280_temperature;BME280_humidity;BME280_pressure;Samples;Min_cycle;Max_cycle;Signal;HPM_P1;HPM_P2
2022/08/27 00:01:15;;;;;;;21.70;19.60;;;20.80;99.90;;;;;;5072850;28;20460;-55
2022/08/27 00:03:43;;;;;;;24.73;22.20;;;20.80;99.90;;;;;;5072896;28;20506;-55
2022/08/27 00:06:12;;;;;;;27.70;25.00;;;20.70;99.90;;;;;;5072654;28;20444;-55
2022/08/27 00:08:40;;;;;;;23.77;21.27;;;20.70;99.90;;;;;;5072992;28;20480;-55
2022/08/27 00:11:08;;;;;;;24.53;22.07;;;20.60;99.90;;;;;;5072325;28;20476;-55
2022/08/27 00:13:36;;;;;;;24.57;22.07;;;20.70;99.90;;;;;;5072784;28;20450;-55
2022/08/27 00:16:03;;;;;;;27.10;21.00;;;20.70;99.90;;;;;;5072624;28;20927;-56
2022/08/27 00:18:31;;;;;;;24.40;21.80;;;20.70;99.90;;;;;;5072380;28;20440;-55
2022/08/27 00:20:58;;;;;;;25.83;21.37;;;20.90;99.90;;;;;;5072630;28;20555;-55
2022/08/27 00:23:25;;;;;;;25.53;22.23;;;20.60;99.90;;;;;;5072519;28;20436;-55
2022/08/27 00:25:52;;;;;;;25.53;22.97;;;20.50;99.90;;;;;;5072441;28;20429;-55
2022/08/27 00:28:21;;;;;;;22.97;20.73;;;20.40;99.90;;;;;;5075290;28;20505;-55
2022/08/27 00:30:48;;;;;;;27.27;23.93;;;20.30;99.90;;;;;;5076220;28;20464;-55
2022/08/27 00:33:15;;;;;;;23.90;21.37;;;20.40;99.90;;;;;;5075849;28;21052;-55
2022/08/27 00:35:42;;;;;;;26.83;22.37;;;20.40;99.90;;;;;;5076106;28;20440;-55
2022/08/27 00:38:10;;;;;;;27.10;20.67;;;20.50;99.90;;;;;;5075972;28;20862;-55
2022/08/27 00:40:38;;;;;;;25.97;21.17;;;20.60;99.90;;;;;;5075781;28;20472;-55
2022/08/27 00:43:05;;;;;;;20.97;18.40;;;20.60;99.90;;;;;;5075921;28;20456;-55
2022/08/27 00:45:39;;;;;;;16.80;15.30;;;20.90;99.90;;;;;;5075533;28;20593;-55
2022/08/27 00:48:09;;;;;;;23.33;20.83;;;21.10;99.90;;;;;;5075712;28;20519;-55
2022/08/27 00:50:39;;;;;;;27.97;22.40;;;21.20;99.90;;;;;;5075703;28;20841;-55
2022/08/27 00:53:10;;;;;;;23.60;21.30;;;21.00;99.90;;;;;;5075309;28;20829;-55
2022/08/27 00:55:42;;;;;;;24.87;20.50;;;20.90;99.90;;;;;;5075500;28;20464;-55
2022/08/27 00:58:14;;;;;;;24.80;21.03;;;20.90;99.90;;;;;;5075451;28;20519;-55
2022/08/27 01:00:43;;;;;;;27.83;20.57;;;21.00;99.90;;;;;;5075572;28;20453;-55
2022/08/27 01:03:11;;;;;;;25.97;23.33;;;21.10;99.90;;;;;;5075541;28;20539;-54
2022/08/27 01:05:39;;;;;;;23.07;20.77;;;21.00;99.90;;;;;;5075328;28;21002;-54
2022/08/27 01:08:10;;;;;;;21.97;19.50;;;20.70;99.90;;;;;;5075177;28;20997;-54
2022/08/27 01:10:38;;;;;;;24.40;20.63;;;20.60;99.90;;;;;;5074972;28;20526;-54
2022/08/27 01:13:07;;;;;;;22.43;20.27;;;20.50;99.90;;;;;;5075316;28;20432;-54
2022/08/27 01:15:35;;;;;;;22.67;20.37;;;20.50;99.90;;;;;;5075130;28;20487;-54
2022/08/27 01:18:07;;;;;;;25.27;22.87;;;20.60;99.90;;;;;;5075280;28;20531;-54
2022/08/27 01:20:48;;;;;;;23.57;21.23;;;20.60;99.90;;;;;;5075156;28;20526;-54
2022/08/27 01:23:22;;;;;;;27.23;22.30;;;20.70;99.90;;;;;;5075123;28;20520;-54
2022/08/27 01:25:52;;;;;;;23.87;21.43;;;20.60;99.90;;;;;;5075019;28;20437;-55
2022/08/27 01:28:21;;;;;;;26.43;23.57;;;20.40;99.90;;;;;;5075031;28;20448;-55
2022/08/27 01:30:48;;;;;;;28.00;24.87;;;20.40;99.90;;;;;;5074583;28;20484;-54
2022/08/27 01:33:18;;;;;;;21.80;19.50;;;20.30;99.90;;;;;;5074779;28;20448;-55
2022/08/27 01:35:48;;;;;;;28.37;25.47;;;20.30;99.90;;;;;;5075011;28;20784;-55
2022/08/27 01:38:16;;;;;;;28.10;23.40;;;20.50;99.90;;;;;;5073896;28;20812;-55
2022/08/27 01:40:44;;;;;;;26.00;22.60;;;20.60;99.90;;;;;;5074543;28;20572;-55
2022/08/27 01:43:13;;;;;;;25.10;22.50;;;20.60;99.90;;;;;;5074608;28;20479;-55
2022/08/27 01:45:47;;;;;;;25.93;23.37;;;20.50;99.90;;;;;;5073880;28;20519;-55
2022/08/27 01:48:14;;;;;;;24.23;20.43;;;20.60;99.90;;;;;;5074931;28;20466;-55
2022/08/27 01:50:41;;;;;;;26.73;24.03;;;20.70;99.90;;;;;;5074395;28;20484;-55
2022/08/27 01:53:16;;;;;;;28.40;25.37;;;20.70;99.90;;;;;;5074528;28;20509;-55
2022/08/27 01:55:45;;;;;;;27.13;24.10;;;20.70;99.90;;;;;;5074484;28;20431;-54
2022/08/27 01:58:14;;;;;;;27.23;23.30;;;20.60;99.90;;;;;;5074302;28;21002;-55
2022/08/27 02:00:44;;;;;;;23.70;21.37;;;20.50;99.90;;;;;;5074458;28;20488;-55
2022/08/27 02:03:12;;;;;;;27.10;24.47;;;20.80;99.90;;;;;;5074534;28;20457;-55
2022/08/27 02:05:39;;;;;;;26.40;23.63;;;20.80;99.90;;;;;;5073999;28;20449;-55
2022/08/27 02:08:07;;;;;;;25.93;23.23;;;20.80;99.90;;;;;;5074044;28;20857;-54
2022/08/27 02:10:36;;;;;;;24.53;22.13;;;20.70;99.90;;;;;;5073983;28;20849;-55
2022/08/27 02:13:05;;;;;;;23.00;20.70;;;20.70;99.90;;;;;;5074200;28;20499;-55
2022/08/27 02:15:34;;;;;;;27.37;24.70;;;21.10;99.90;;;;;;5073940;28;21006;-55
2022/08/27 02:18:02;;;;;;;26.70;24.00;;;21.00;99.90;;;;;;5073994;28;20480;-55
2022/08/27 02:20:30;;;;;;;25.93;23.53;;;20.90;99.90;;;;;;5073911;28;20464;-55
2022/08/27 02:22:57;;;;;;;26.67;23.97;;;20.80;99.90;;;;;;5073772;28;20927;-55
2022/08/27 02:25:26;;;;;;;26.80;24.00;;;20.70;99.90;;;;;;5073716;28;20806;-55
2022/08/27 02:27:53;;;;;;;22.13;19.80;;;20.70;99.90;;;;;;5073595;28;20491;-55
2022/08/27 02:30:23;;;;;;;27.57;24.80;;;20.80;99.90;;;;;;5073814;28;20658;-55
2022/08/27 02:32:51;;;;;;;29.80;26.70;;;20.80;99.90;;;;;;5073917;28;20566;-55
2022/08/27 02:35:20;;;;;;;27.63;24.60;;;20.80;99.90;;;;;;5074227;28;20453;-55
2022/08/27 02:37:48;;;;;;;31.53;23.67;;;20.70;99.90;;;;;;5073646;28;20428;-55
2022/08/27 02:40:17;;;;;;;27.10;24.20;;;20.60;99.90;;;;;;5073541;28;20854;-54
2022/08/27 02:42:44;;;;;;;28.63;25.87;;;20.60;99.90;;;;;;5073835;28;20487;-55
2022/08/27 02:45:12;;;;;;;28.70;25.10;;;20.60;99.90;;;;;;5073321;28;20460;-55
2022/08/27 02:47:40;;;;;;;29.40;25.30;;;20.50;99.90;;;;;;5073560;28;20539;-55
2022/08/27 02:50:10;;;;;;;27.87;25.13;;;20.60;99.90;;;;;;5072877;28;20480;-55
2022/08/27 02:52:37;;;;;;;29.77;26.87;;;20.70;99.90;;;;;;5073637;28;20448;-55
2022/08/27 02:55:05;;;;;;;30.47;24.43;;;20.40;99.90;;;;;;5073158;28;20535;-55
2022/08/27 02:57:33;;;;;;;26.80;24.00;;;20.30;99.90;;;;;;5073614;28;20547;-55
2022/08/27 03:00:00;;;;;;;28.00;23.93;;;20.20;99.90;;;;;;5073515;28;20448;-55
2022/08/27 03:02:27;;;;;;;31.60;26.77;;;20.10;99.90;;;;;;5073343;28;20579;-55
2022/08/27 03:04:54;;;;;;;30.27;26.30;;;20.00;99.90;;;;;;5073227;28;20448;-55
2022/08/27 03:07:23;;;;;;;31.67;26.03;;;19.90;99.90;;;;;;5073117;28;20971;-55
2022/08/27 03:09:50;;;;;;;32.10;28.70;;;19.90;99.90;;;;;;5073221;28;20476;-55
2022/08/27 03:12:17;;;;;;;30.60;25.77;;;20.10;99.90;;;;;;5073505;28;20567;-55
2022/08/27 03:14:45;;;;;;;32.17;28.77;;;20.00;99.90;;;;;;5073308;28;20531;-55
2022/08/27 03:19:56;;;;;;;28.77;25.30;;;20.40;99.90;;;;;;5073046;28;20787;-55
2022/08/27 03:22:25;;;;;;;27.73;24.77;;;20.90;99.90;;;;;;5072962;28;20551;-55
2022/08/27 03:24:54;;;;;;;26.87;23.67;;;20.70;99.90;;;;;;5073166;28;20452;-55
2022/08/27 03:27:21;;;;;;;26.73;23.93;;;20.30;99.90;;;;;;5073127;28;20454;-55
2022/08/27 03:29:48;;;;;;;25.80;23.20;;;20.20;99.90;;;;;;5072802;28;20989;-55
2022/08/27 03:32:15;;;;;;;21.90;19.00;;;20.20;99.90;;;;;;5072856;28;20551;-55
2022/08/27 03:34:43;;;;;;;24.40;21.90;;;20.10;99.90;;;;;;5072804;28;20540;-55
2022/08/27 03:37:10;;;;;;;25.40;22.73;;;20.00;99.90;;;;;;5072816;28;20448;-55
2022/08/27 03:39:39;;;;;;;23.30;20.90;;;19.90;99.90;;;;;;5073452;28;20503;-55
2022/08/27 03:42:06;;;;;;;25.33;22.63;;;19.90;99.90;;;;;;5072762;28;20472;-55
2022/08/27 03:44:33;;;;;;;27.87;21.97;;;19.90;99.90;;;;;;5072501;28;20480;-55
2022/08/27 03:47:01;;;;;;;27.27;24.47;;;19.90;99.90;;;;;;5072850;28;20435;-55
2022/08/27 03:49:28;;;;;;;28.83;24.60;;;19.90;99.90;;;;;;5072850;28;20449;-55
2022/08/27 03:51:55;;;;;;;26.17;23.03;;;19.80;99.90;;;;;;5072939;28;20471;-55
2022/08/27 03:54:23;;;;;;;25.50;22.80;;;19.90;99.90;;;;;;5072937;28;20470;-55
2022/08/27 03:56:52;;;;;;;24.23;21.63;;;19.80;99.90;;;;;;5072491;28;20539;-55
2022/08/27 03:59:20;;;;;;;23.23;21.00;;;19.80;99.90;;;;;;5072583;28;20931;-55
2022/08/27 04:01:47;;;;;;;22.20;20.07;;;19.80;99.90;;;;;;5073358;28;20529;-55
2022/08/27 04:04:14;;;;;;;17.77;15.93;;;19.90;99.90;;;;;;5076618;28;20444;-55
2022/08/27 04:06:42;;;;;;;22.73;20.40;;;20.20;99.90;;;;;;5076296;28;20987;-55
2022/08/27 04:09:09;;;;;;;23.27;20.87;;;20.30;99.90;;;;;;5076125;28;20486;-55
2022/08/27 04:11:36;;;;;;;20.47;18.37;;;20.10;99.90;;;;;;5076795;28;20575;-55
2022/08/27 04:14:06;;;;;;;27.83;24.20;;;20.20;99.90;;;;;;5076193;28;20543;-55
2022/08/27 04:16:34;;;;;;;29.67;26.53;;;20.20;99.90;;;;;;5076112;28;20472;-55
2022/08/27 04:19:02;;;;;;;31.37;28.00;;;20.10;99.90;;;;;;5076363;28;20428;-55
2022/08/27 04:21:31;;;;;;;31.60;28.30;;;20.20;99.90;;;;;;5076557;28;20563;-55
2022/08/27 04:23:59;;;;;;;37.70;31.20;;;20.10;99.90;;;;;;5075967;28;20448;-55
2022/08/27 04:26:26;;;;;;;41.03;35.47;;;20.00;99.90;;;;;;5076432;28;20448;-55
2022/08/27 04:28:54;;;;;;;40.40;30.57;;;19.90;99.90;;;;;;5076065;28;20480;-55
2022/08/27 04:31:22;;;;;;;32.00;28.60;;;20.00;99.90;;;;;;5076074;28;20488;-55
2022/08/27 04:33:50;;;;;;;33.10;27.40;;;20.00;99.90;;;;;;5075983;28;20444;-55
2022/08/27 04:36:17;;;;;;;39.50;32.87;;;20.10;99.90;;;;;;5076060;28;20448;-55
2022/08/27 04:38:44;;;;;;;39.47;34.50;;;20.20;99.90;;;;;;5075754;28;20444;-55
2022/08/27 04:41:21;;;;;;;39.63;35.53;;;20.20;99.90;;;;;;5075878;28;20476;-55
2022/08/27 04:43:50;;;;;;;47.63;39.60;;;20.10;99.90;;;;;;5075812;28;20901;-55
2022/08/27 04:46:24;;;;;;;32.37;25.57;;;19.90;99.90;;;;;;5074569;28;20464;-55
2022/08/27 04:48:52;;;;;;;42.13;34.80;;;20.10;99.90;;;;;;5075880;28;20432;-55
2022/08/27 04:51:20;;;;;;;32.33;29.00;;;20.10;99.90;;;;;;5075689;28;20531;-55
2022/08/27 04:53:48;;;;;;;32.77;27.53;;;20.30;99.90;;;;;;5075585;28;20447;-55
2022/08/27 04:56:18;;;;;;;38.60;34.30;;;20.00;99.90;;;;;;5075427;28;20455;-55
2022/08/27 04:58:45;;;;;;;37.27;33.27;;;20.10;99.90;;;;;;5075832;28;20544;-55
2022/08/27 05:01:17;;;;;;;44.80;34.37;;;20.00;99.90;;;;;;5075673;28;20556;-55
2022/08/27 05:03:45;;;;;;;45.37;34.70;;;19.90;99.90;;;;;;5075616;28;20469;-55
2022/08/27 05:06:17;;;;;;;37.07;32.67;;;20.00;99.90;;;;;;5075407;28;20448;-55
2022/08/27 05:08:45;;;;;;;44.73;35.40;;;19.90;99.90;;;;;;5075142;28;21021;-55
2022/08/27 05:11:14;;;;;;;46.17;36.30;;;20.00;99.90;;;;;;5075501;28;20575;-55
2022/08/27 05:13:42;;;;;;;41.83;37.23;;;19.90;99.90;;;;;;5074354;28;20448;-55
2022/08/27 05:16:12;;;;;;;42.53;35.97;;;20.10;99.90;;;;;;5075583;28;20444;-55
2022/08/27 05:18:41;;;;;;;42.80;36.47;;;20.20;99.90;;;;;;5075367;28;20432;-55
2022/08/27 05:21:15;;;;;;;39.20;32.70;;;20.30;99.90;;;;;;5074861;28;20830;-55
2022/08/27 05:23:43;;;;;;;39.37;33.37;;;20.30;99.90;;;;;;5075115;28;20444;-55
2022/08/27 05:26:10;;;;;;;39.83;33.30;;;20.10;99.90;;;;;;5074867;28;20451;-55
2022/08/27 05:28:38;;;;;;;28.30;25.47;;;20.20;99.90;;;;;;5075295;28;20444;-55
2022/08/27 05:31:07;;;;;;;36.80;31.90;;;20.30;99.90;;;;;;5074812;28;20480;-55
2022/08/27 05:33:34;;;;;;;41.97;34.40;;;20.50;99.90;;;;;;5075233;28;20448;-55
2022/08/27 05:36:02;;;;;;;36.10;31.73;;;20.30;99.90;;;;;;5075159;28;20433;-55
2022/08/27 05:38:31;;;;;;;37.53;32.23;;;20.20;99.90;;;;;;5074869;28;20451;-55
2022/08/27 05:41:08;;;;;;;37.23;32.97;;;20.20;99.90;;;;;;5074512;28;20563;-55
2022/08/27 05:43:35;;;;;;;39.47;35.27;;;20.20;99.90;;;;;;5074487;28;20490;-55
2022/08/27 05:46:05;;;;;;;37.17;32.90;;;20.10;99.90;;;;;;5074500;28;20555;-55
2022/08/27 05:48:34;;;;;;;44.73;36.10;;;20.00;99.90;;;;;;5074764;28;20465;-55
2022/08/27 05:51:09;;;;;;;37.97;33.60;;;19.90;99.90;;;;;;5074235;28;20480;-55
2022/08/27 05:53:38;;;;;;;38.73;31.50;;;19.90;99.90;;;;;;5074401;28;20440;-55
2022/08/27 05:56:05;;;;;;;42.33;33.47;;;20.00;99.90;;;;;;5074667;28;20444;-55
2022/08/27 06:01:22;;;;;;;47.97;34.40;;;20.40;99.90;;;;;;5074198;28;20447;-55
2022/08/27 06:03:51;;;;;;;33.17;29.73;;;20.40;99.90;;;;;;5074467;28;20456;-55
2022/08/27 06:06:19;;;;;;;36.97;32.70;;;20.60;99.90;;;;;;5074184;28;20448;-55
2022/08/27 06:08:48;;;;;;;31.13;26.20;;;20.50;99.90;;;;;;5074313;28;20452;-55
2022/08/27 06:11:17;;;;;;;35.80;31.90;;;20.60;99.90;;;;;;5074072;28;20826;-55
2022/08/27 06:13:44;;;;;;;35.97;30.90;;;20.50;99.90;;;;;;5073966;28;20452;-56
2022/08/27 06:16:14;;;;;;;37.70;30.90;;;20.50;99.90;;;;;;5073847;28;20535;-55
2022/08/27 06:18:43;;;;;;;37.13;32.47;;;20.40;99.90;;;;;;5073767;28;20444;-55
2022/08/27 06:21:12;;;;;;;28.43;25.60;;;20.40;99.90;;;;;;5073722;28;20452;-55
2022/08/27 06:23:39;;;;;;;35.83;31.97;;;20.70;99.90;;;;;;5073977;28;20448;-55
2022/08/27 06:26:10;;;;;;;27.70;24.90;;;20.70;99.90;;;;;;5073448;28;21006;-55
2022/08/27 06:28:39;;;;;;;37.40;32.00;;;20.80;99.90;;;;;;5074105;28;20603;-55
2022/08/27 06:31:08;;;;;;;42.23;32.53;;;20.60;99.90;;;;;;5073739;28;20487;-55
2022/08/27 06:33:36;;;;;;;35.90;31.83;;;20.90;99.90;;;;;;5073562;28;20432;-56
2022/08/27 06:36:05;;;;;;;31.40;28.10;;;20.70;99.90;;;;;;5073476;28;20459;-55
2022/08/27 06:38:33;;;;;;;27.60;24.60;;;20.90;99.90;;;;;;5073780;28;20440;-55
2022/08/27 06:41:01;;;;;;;33.10;28.90;;;21.20;99.90;;;;;;5073719;28;20511;-55
2022/08/27 06:43:29;;;;;;;33.40;29.60;;;21.10;99.90;;;;;;5073582;28;20488;-55
2022/08/27 06:45:56;;;;;;;21.47;19.33;;;20.90;99.90;;;;;;5073477;28;20494;-55
2022/08/27 06:48:23;;;;;;;33.33;29.90;;;20.90;99.90;;;;;;5073422;28;20938;-55
2022/08/27 06:50:50;;;;;;;37.47;33.60;;;21.00;99.90;;;;;;5073406;28;20567;-55
2022/08/27 06:53:17;;;;;;;34.50;29.87;;;20.90;99.90;;;;;;5073403;28;20440;-56
2022/08/27 06:55:47;;;;;;;22.30;20.13;;;21.00;99.90;;;;;;5073697;28;20462;-55
2022/08/27 06:58:16;;;;;;;35.13;29.47;;;21.10;99.90;;;;;;5073311;28;20450;-55
2022/08/27 07:00:47;;;;;;;34.23;30.60;;;21.00;99.90;;;;;;5073432;28;20547;-55
2022/08/27 07:03:14;;;;;;;33.43;29.80;;;21.20;99.90;;;;;;5073516;28;20498;-56
2022/08/27 07:05:45;;;;;;;34.00;30.10;;;21.10;99.90;;;;;;5073118;28;20444;-56
2022/08/27 07:08:12;;;;;;;32.00;28.60;;;21.00;99.90;;;;;;5073360;28;20445;-55
2022/08/27 07:10:39;;;;;;;36.03;26.77;;;21.10;99.90;;;;;;5072821;28;20543;-56
2022/08/27 07:13:06;;;;;;;32.90;29.40;;;21.30;99.90;;;;;;5073323;28;20472;-56
2022/08/27 07:15:34;;;;;;;35.27;29.20;;;21.20;99.90;;;;;;5073035;28;20535;-55
2022/08/27 07:18:02;;;;;;;29.53;26.50;;;21.30;99.90;;;;;;5073276;28;20454;-56
2022/08/27 07:20:29;;;;;;;34.57;29.60;;;21.20;99.90;;;;;;5073301;28;20559;-56
2022/08/27 07:22:58;;;;;;;26.93;24.10;;;21.10;99.90;;;;;;5073281;28;20629;-56
2022/08/27 07:25:26;;;;;;;34.47;30.87;;;21.10;99.90;;;;;;5072809;28;20954;-56
2022/08/27 07:27:53;;;;;;;24.03;21.67;;;21.30;99.90;;;;;;5073391;28;20456;-56
2022/08/27 07:30:20;;;;;;;31.77;27.43;;;21.10;99.90;;;;;;5072755;28;20927;-56
2022/08/27 07:32:47;;;;;;;33.57;29.80;;;21.30;99.90;;;;;;5073155;28;20468;-56
2022/08/27 07:35:16;;;;;;;33.10;29.73;;;21.20;99.90;;;;;;5073166;28;20452;-55
2022/08/27 07:37:43;;;;;;;28.40;25.60;;;21.30;99.90;;;;;;5075542;28;20527;-56
2022/08/27 07:40:13;;;;;;;31.33;26.57;;;21.30;99.90;;;;;;5076958;28;20968;-56
2022/08/27 07:45:25;;;;;;;32.17;27.70;;;21.60;99.90;;;;;;5076834;28;20467;-55
2022/08/27 07:47:52;;;;;;;27.47;24.67;;;21.60;99.90;;;;;;5076919;28;20475;-56
2022/08/27 07:50:22;;;;;;;30.43;27.30;;;21.70;99.90;;;;;;5076570;28;20452;-56
2022/08/27 07:52:50;;;;;;;35.03;29.30;;;21.50;99.90;;;;;;5076784;28;20487;-56
2022/08/27 07:55:18;;;;;;;27.10;23.23;;;21.50;99.90;;;;;;5076865;28;20800;-56
2022/08/27 07:57:46;;;;;;;26.63;23.87;;;21.50;99.90;;;;;;5076537;28;20451;-56
2022/08/27 08:00:14;;;;;;;31.63;28.37;;;21.60;99.90;;;;;;5076797;28;20452;-56
2022/08/27 08:02:43;;;;;;;31.73;28.33;;;22.00;99.90;;;;;;5076827;28;20519;-56
2022/08/27 08:05:12;;;;;;;32.73;29.43;;;22.20;99.90;;;;;;5076570;28;20492;-56
2022/08/27 08:07:41;;;;;;;32.13;28.57;;;22.20;99.90;;;;;;5076215;28;20440;-56
2022/08/27 08:10:10;;;;;;;33.30;28.70;;;22.10;99.90;;;;;;5076246;28;20535;-55
2022/08/27 08:12:38;;;;;;;32.30;29.20;;;22.00;99.90;;;;;;5076854;28;20790;-55
2022/08/27 08:15:08;;;;;;;36.27;28.67;;;21.80;99.90;;;;;;5076392;28;20883;-55
2022/08/27 08:17:36;;;;;;;27.40;24.47;;;21.60;99.90;;;;;;5076443;28;20452;-56
2022/08/27 08:20:07;;;;;;;33.57;30.07;;;21.60;99.90;;;;;;5076149;28;20926;-56
2022/08/27 08:22:34;;;;;;;38.90;30.70;;;21.70;99.90;;;;;;5076236;28;20440;-56
2022/08/27 08:25:04;;;;;;;38.80;31.43;;;21.60;99.90;;;;;;5075780;28;20454;-56
2022/08/27 08:27:32;;;;;;;31.90;28.63;;;21.40;99.90;;;;;;5076330;28;20444;-56
2022/08/27 08:29:59;;;;;;;38.67;29.57;;;21.10;99.90;;;;;;5075842;28;20444;-56
2022/08/27 08:32:26;;;;;;;37.03;32.07;;;21.10;99.90;;;;;;5075903;28;20516;-56
2022/08/27 08:34:54;;;;;;;38.57;34.47;;;21.00;99.90;;;;;;5075917;28;20935;-56
2022/08/27 08:37:21;;;;;;;41.60;32.60;;;20.90;99.90;;;;;;5075758;28;20482;-56
2022/08/27 08:39:49;;;;;;;41.10;34.33;;;21.00;99.90;;;;;;5075952;28;20782;-55
2022/08/27 08:42:30;;;;;;;30.53;27.07;;;21.00;99.90;;;;;;5076139;28;20515;-55
2022/08/27 08:44:59;;;;;;;38.60;34.40;;;21.10;99.90;;;;;;5075851;28;20906;-55
2022/08/27 08:47:30;;;;;;;30.00;27.07;;;21.00;99.90;;;;;;5075876;28;20475;-56
2022/08/27 08:50:02;;;;;;;25.33;22.73;;;21.10;99.90;;;;;;5075621;28;20432;-56
2022/08/27 08:52:46;;;;;;;39.37;33.27;;;21.20;99.90;;;;;;5075524;28;20574;-55
2022/08/27 08:55:37;;;;;;;35.00;31.50;;;21.40;99.90;;;;;;5075663;28;20425;-56
2022/08/27 08:58:14;;;;;;;36.80;32.00;;;21.40;99.90;;;;;;5072970;28;20460;-56
2022/08/27 09:00:44;;;;;;;42.17;34.47;;;21.50;99.90;;;;;;5075276;28;20522;-56
2022/08/27 09:03:14;;;;;;;40.03;33.90;;;21.50;99.90;;;;;;5075635;28;20548;-56
2022/08/27 09:05:45;;;;;;;34.20;30.50;;;21.50;99.90;;;;;;5075134;28;20448;-56
2022/08/27 09:08:18;;;;;;;34.30;28.87;;;21.60;99.90;;;;;;5075497;28;20467;-56
2022/08/27 09:10:51;;;;;;;30.67;27.53;;;21.60;99.90;;;;;;5075361;28;20485;-56
2022/08/27 09:13:25;;;;;;;32.03;28.47;;;21.60;99.90;;;;;;5075560;28;20436;-56
2022/08/27 09:15:57;;;;;;;21.73;19.53;;;21.80;99.90;;;;;;5075022;28;20428;-56
2022/08/27 09:18:24;;;;;;;31.40;28.50;;;21.80;99.90;;;;;;5075206;28;20472;-56
2022/08/27 09:21:01;;;;;;;29.00;26.00;;;21.80;99.90;;;;;;5075179;28;20480;-56
2022/08/27 09:23:36;;;;;;;25.43;22.83;;;21.80;99.90;;;;;;5075075;28;20891;-56
2022/08/27 09:26:03;;;;;;;23.03;20.40;;;21.80;99.90;;;;;;5075184;28;20457;-56
2022/08/27 09:31:28;;;;;;;19.47;17.60;;;21.80;99.90;;;;;;5032578;28;20462;-55
2022/08/27 09:33:56;;;;;;;16.93;15.53;;;21.90;99.90;;;;;;5064737;28;20452;-56
2022/08/27 09:36:24;;;;;;;19.23;17.33;;;22.00;99.90;;;;;;5074652;28;20480;-55
2022/08/27 09:38:55;;;;;;;15.97;14.57;;;22.20;99.90;;;;;;5075215;28;20537;-55
2022/08/27 09:41:25;;;;;;;15.93;14.33;;;22.00;99.90;;;;;;5074689;28;20472;-55
2022/08/27 09:44:02;;;;;;;19.40;17.37;;;22.10;99.90;;;;;;5074654;28;20432;-54
2022/08/27 09:46:30;;;;;;;17.37;15.67;;;22.00;99.90;;;;;;5074344;28;20896;-54
2022/08/27 09:48:57;;;;;;;20.40;18.03;;;21.70;99.90;;;;;;5075033;28;20476;-55
2022/08/27 09:51:26;;;;;;;20.23;18.43;;;21.60;99.90;;;;;;5074149;28;20475;-54
2022/08/27 09:53:56;;;;;;;18.43;16.83;;;21.50;99.90;;;;;;5074444;28;20448;-54
2022/08/27 09:56:30;;;;;;;19.33;17.50;;;21.60;99.90;;;;;;5074819;28;20435;-54
2022/08/27 09:59:05;;;;;;;17.57;15.70;;;21.50;99.90;;;;;;5074526;28;20515;-54
2022/08/27 10:01:34;;;;;;;16.60;14.80;;;21.30;99.90;;;;;;5073970;28;20470;-55
2022/08/27 10:04:06;;;;;;;19.50;17.70;;;21.40;99.90;;;;;;5074265;28;20452;-54
2022/08/27 10:06:34;;;;;;;17.47;15.77;;;21.40;99.90;;;;;;5074640;28;20527;-54
2022/08/27 10:09:09;;;;;;;17.90;16.20;;;21.20;99.90;;;;;;5074015;28;20480;-55
2022/08/27 10:11:40;;;;;;;17.37;14.40;;;21.30;99.90;;;;;;5074099;28;20484;-55
2022/08/27 10:14:15;;;;;;;16.63;15.10;;;21.50;99.90;;;;;;5073932;28;20460;-55
2022/08/27 10:17:02;;;;;;;20.37;18.57;;;21.50;99.90;;;;;;5074529;28;20506;-55
2022/08/27 10:19:52;;;;;;;19.47;17.53;;;21.50;99.90;;;;;;5074175;28;20498;-56
2022/08/27 10:22:32;;;;;;;19.47;17.67;;;21.60;99.90;;;;;;5073992;28;20521;-55
2022/08/27 10:25:10;;;;;;;18.83;16.87;;;21.50;99.90;;;;;;5073534;28;20523;-55
2022/08/27 10:27:46;;;;;;;18.23;16.43;;;21.40;99.90;;;;;;5073783;28;20511;-55
2022/08/27 10:30:16;;;;;;;19.37;17.47;;;21.40;99.90;;;;;;5073632;28;20599;-55
2022/08/27 10:32:56;;;;;;;20.63;18.63;;;21.60;99.90;;;;;;5073751;28;20820;-55
2022/08/27 10:35:27;;;;;;;20.30;18.50;;;21.80;99.90;;;;;;5073541;28;20463;-56
2022/08/27 10:38:06;;;;;;;21.13;18.90;;;21.90;99.90;;;;;;5073687;28;20401;-55
2022/08/27 10:40:39;;;;;;;20.00;17.90;;;21.90;99.90;;;;;;5073635;28;20554;-55
2022/08/27 10:43:28;;;;;;;21.33;19.33;;;22.00;99.90;;;;;;5073889;28;20460;-55
2022/08/27 10:46:07;;;;;;;21.33;19.13;;;21.90;99.90;;;;;;5073472;28;20529;-55
2022/08/27 10:48:39;;;;;;;19.10;17.20;;;21.90;99.90;;;;;;5073765;28;20530;-55
2022/08/27 10:51:14;;;;;;;24.67;20.33;;;21.90;99.90;;;;;;5073572;28;20470;-55
2022/08/27 10:53:48;;;;;;;23.57;21.27;;;21.90;99.90;;;;;;5073315;28;20460;-55
2022/08/27 10:56:19;;;;;;;18.20;16.53;;;21.80;99.90;;;;;;5073450;28;20907;-55
2022/08/27 10:59:01;;;;;;;24.13;19.70;;;21.60;99.90;;;;;;5073223;28;20919;-56
2022/08/27 11:01:40;;;;;;;22.10;19.47;;;21.60;99.90;;;;;;5073414;28;20822;-55
2022/08/27 11:04:10;;;;;;;22.37;20.07;;;21.50;99.90;;;;;;5073312;28;20437;-55
2022/08/27 11:06:42;;;;;;;23.53;21.27;;;21.40;99.90;;;;;;5073398;28;20863;-55
2022/08/27 11:09:15;;;;;;;22.07;19.83;;;21.40;99.90;;;;;;5073036;28;20896;-55
2022/08/27 11:11:45;;;;;;;19.80;17.90;;;21.50;99.90;;;;;;5072466;28;20491;-56
2022/08/27 11:14:22;;;;;;;21.50;19.10;;;21.70;99.90;;;;;;5073515;28;20417;-55
2022/08/27 11:16:55;;;;;;;22.70;20.40;;;21.80;99.90;;;;;;5073396;28;20420;-55
2022/08/27 11:19:27;;;;;;;23.77;18.97;;;21.70;99.90;;;;;;5073256;28;20455;-55
2022/08/27 11:22:04;;;;;;;23.37;20.97;;;21.90;99.90;;;;;;5073106;28;20805;-55
2022/08/27 11:24:36;;;;;;;24.53;21.93;;;21.80;99.90;;;;;;5072766;28;20435;-55
2022/08/27 11:27:06;;;;;;;23.80;21.50;;;21.70;99.90;;;;;;5073103;28;20406;-55
2022/08/27 11:29:36;;;;;;;24.53;22.03;;;21.70;99.90;;;;;;5072947;28;20446;-55
2022/08/27 11:32:15;;;;;;;24.03;21.80;;;21.60;99.90;;;;;;5072703;28;21005;-55
2022/08/27 11:34:46;;;;;;;26.20;23.50;;;21.40;99.90;;;;;;5072823;28;20523;-55
2022/08/27 11:37:30;;;;;;;25.73;23.10;;;21.40;99.90;;;;;;5073158;28;20409;-55
2022/08/27 11:40:21;;;;;;;23.43;21.20;;;21.30;99.90;;;;;;5073207;28;20433;-55
2022/08/27 11:42:51;;;;;;;23.37;21.03;;;21.30;99.90;;;;;;5060100;28;20444;-56
2022/08/27 11:45:23;;;;;;;23.73;21.43;;;21.30;99.90;;;;;;5072757;28;20472;-55
2022/08/27 11:47:57;;;;;;;25.33;22.80;;;21.60;99.90;;;;;;5072987;28;20524;-55
2022/08/27 11:50:27;;;;;;;24.17;21.77;;;21.40;99.90;;;;;;5072659;28;20449;-55
2022/08/27 11:52:58;;;;;;;25.53;23.03;;;21.40;99.90;;;;;;5072938;28;20952;-55
2022/08/27 11:55:28;;;;;;;22.97;20.70;;;21.20;99.90;;;;;;5072872;28;20804;-55
2022/08/27 11:58:07;;;;;;;22.90;20.60;;;21.40;99.90;;;;;;5073141;28;20432;-55
2022/08/27 12:00:37;;;;;;;23.43;21.17;;;21.30;99.90;;;;;;5072880;28;20815;-55
2022/08/27 12:03:09;;;;;;;26.37;22.50;;;21.30;99.90;;;;;;5072932;28;20429;-55
2022/08/27 12:05:43;;;;;;;30.40;24.00;;;21.10;99.90;;;;;;5072989;28;20433;-55
2022/08/27 12:08:28;;;;;;;27.20;24.33;;;21.30;99.90;;;;;;5072919;28;20428;-55
2022/08/27 12:11:07;;;;;;;27.53;23.77;;;21.40;99.90;;;;;;5072499;28;20518;-55
2022/08/27 12:13:40;;;;;;;19.40;17.70;;;21.50;99.90;;;;;;5072455;28;20470;-55
2022/08/27 12:16:22;;;;;;;26.87;23.27;;;21.90;99.90;;;;;;5072743;28;20432;-55
2022/08/27 12:19:03;;;;;;;28.73;25.73;;;22.00;99.90;;;;;;5072718;28;20462;-55
2022/08/27 12:21:44;;;;;;;29.03;26.20;;;21.70;99.90;;;;;;5072251;28;20551;-55
2022/08/27 12:24:32;;;;;;;26.37;23.73;;;21.60;99.90;;;;;;5075681;28;20476;-55
2022/08/27 12:27:02;;;;;;;28.37;24.97;;;21.50;99.90;;;;;;5073557;28;20515;-55
2022/08/27 12:29:39;;;;;;;29.73;26.70;;;21.50;99.90;;;;;;5076398;28;20444;-55
2022/08/27 12:32:26;;;;;;;26.23;23.53;;;21.60;99.90;;;;;;5076255;28;20550;-55
2022/08/27 12:35:07;;;;;;;29.03;25.83;;;21.50;99.90;;;;;;5075874;28;20520;-55
2022/08/27 12:37:37;;;;;;;28.97;25.07;;;21.60;99.90;;;;;;5076217;28;20433;-55
2022/08/27 12:40:13;;;;;;;29.60;26.60;;;21.70;99.90;;;;;;5076225;28;20495;-55
2022/08/27 12:42:40;;;;;;;30.17;25.40;;;21.70;99.90;;;;;;5076232;28;20550;-56
2022/08/27 12:45:08;;;;;;;20.57;18.80;;;21.90;99.90;;;;;;5075900;28;20480;-55
2022/08/27 12:47:40;;;;;;;22.67;20.53;;;21.90;99.90;;;;;;5075979;28;20516;-55
2022/08/27 12:50:11;;;;;;;32.80;28.03;;;21.90;99.90;;;;;;5075553;28;20442;-55
2022/08/27 12:53:00;;;;;;;30.50;27.37;;;21.90;99.90;;;;;;5075660;28;20457;-55
2022/08/27 12:55:40;;;;;;;32.73;27.90;;;21.90;99.90;;;;;;5075591;28;20476;-55